Photometre #852[NE_1.6_Dp] Portglenone_MO AOT

File : 20200926_852.hum

26/09/2020,07:22:42,TEMP=6.4,BA=5.52,STAT.A,ExtBa=12.90
26/09/2020,07:24:14,TEMP=6.7,BA=5.52,STAT.b=10.0
26/09/2020,07:27:17,TEMP=6.6,BA=5.52,STAT.A,ExtBa=12.80
26/09/2020,07:28:49,TEMP=6.9,BA=5.52,STAT.b=10.0
26/09/2020,07:32:39,TEMP=6.7,BA=5.36,STAT.A,ExtBa=12.70
26/09/2020,07:34:11,TEMP=6.9,BA=5.36,STAT.b=10.0
26/09/2020,07:39:03,TEMP=6.7,BA=5.36,STAT.A,ExtBa=12.70
26/09/2020,07:40:35,TEMP=7.0,BA=5.32,STAT.b=10.0
26/09/2020,07:46:49,TEMP=6.8,BA=5.32,STAT.A,ExtBa=12.60
26/09/2020,07:48:21,TEMP=7.1,BA=5.32,STAT.b=10.0
26/09/2020,07:56:28,TEMP=7.2,BA=5.52,STAT.A,ExtBa=12.60
26/09/2020,07:58:00,TEMP=7.5,BA=5.52,STAT.b=10.0
26/09/2020,08:08:48,TEMP=7.7,BA=5.52,STAT.B,ExtBa=12.60
26/09/2020,08:10:20,TEMP=8.0,BA=5.52,STAT.b=10.0
26/09/2020,08:14:46,TEMP=8.0,BA=5.52,STAT.A,ExtBa=12.50
26/09/2020,08:16:18,TEMP=8.3,BA=5.52,STAT.b=10.0
26/09/2020,08:21:30,TEMP=8.3,BA=5.56,STAT.A,ExtBa=12.70
26/09/2020,08:23:02,TEMP=8.6,BA=5.56,STAT.b=10.0
26/09/2020,08:29:10,TEMP=9.4,BA=5.56,STAT.A,ExtBa=13.00
26/09/2020,08:30:42,TEMP=9.9,BA=5.52,STAT.b=10.0
26/09/2020,08:37:59,TEMP=10.4,BA=5.52,STAT.A,ExtBa=13.20
26/09/2020,08:39:32,TEMP=10.8,BA=5.52,STAT.b=10.0
26/09/2020,08:48:17,TEMP=10.1,BA=5.52,STAT.C,ExtBa=13.10
26/09/2020,08:49:50,TEMP=10.4,BA=5.52,STAT.b=11.0
26/09/2020,09:00:31,TEMP=10.9,BA=5.60,STAT.A,ExtBa=13.70
26/09/2020,09:02:04,TEMP=11.4,BA=5.60,STAT.b=10.0
26/09/2020,09:15:23,TEMP=12.3,BA=5.64,STAT.A,ExtBa=14.20
26/09/2020,09:16:56,TEMP=12.8,BA=5.64,STAT.b=11.0
26/09/2020,09:17:42,TEMP=12.9,BA=5.64,STAT.F,ExtBa=14.10
26/09/2020,09:19:14,TEMP=13.1,BA=5.64,STAT.b=11.0
26/09/2020,09:32:40,TEMP=13.0,BA=5.64,STAT.D,ExtBa=14.30
26/09/2020,09:34:12,TEMP=13.4,BA=5.64,STAT.b=11.0
26/09/2020,09:47:40,TEMP=13.8,BA=5.64,STAT.D,ExtBa=14.30
26/09/2020,09:49:13,TEMP=14.2,BA=5.64,STAT.b=11.0
26/09/2020,10:02:40,TEMP=14.0,BA=5.60,STAT.D,ExtBa=14.30
26/09/2020,10:04:13,TEMP=14.4,BA=5.60,STAT.b=11.0
26/09/2020,10:17:42,TEMP=14.4,BA=5.56,STAT.F,ExtBa=14.30
26/09/2020,10:19:14,TEMP=14.7,BA=5.56,STAT.b=11.0
26/09/2020,10:32:41,TEMP=14.4,BA=5.56,STAT.D,ExtBa=14.30
26/09/2020,10:34:12,TEMP=14.7,BA=5.56,STAT.b=11.0
26/09/2020,10:47:41,TEMP=14.3,BA=5.56,STAT.D,ExtBa=14.30
26/09/2020,10:49:12,TEMP=14.7,BA=5.56,STAT.b=11.0
26/09/2020,11:02:41,TEMP=14.7,BA=5.56,STAT.D,ExtBa=14.30
26/09/2020,11:04:12,TEMP=15.2,BA=5.56,STAT.b=11.0
26/09/2020,11:17:43,TEMP=14.8,BA=5.52,STAT.F,ExtBa=14.30
26/09/2020,11:19:14,TEMP=15.2,BA=5.52,STAT.b=11.0
26/09/2020,11:32:41,TEMP=14.6,BA=5.56,STAT.D,ExtBa=14.30
26/09/2020,11:34:12,TEMP=15.0,BA=5.56,STAT.b=11.0
26/09/2020,11:47:41,TEMP=14.9,BA=5.52,STAT.D,ExtBa=14.30
26/09/2020,11:49:12,TEMP=15.2,BA=5.52,STAT.b=11.0
26/09/2020,12:02:41,TEMP=15.4,BA=5.52,STAT.D,ExtBa=14.30
26/09/2020,12:04:11,TEMP=15.8,BA=5.52,STAT.b=11.0
26/09/2020,12:17:43,TEMP=15.8,BA=5.52,STAT.F,ExtBa=14.20
26/09/2020,12:19:13,TEMP=16.2,BA=5.52,STAT.b=11.0
26/09/2020,12:32:41,TEMP=14.9,BA=5.52,STAT.D,ExtBa=14.30
26/09/2020,12:34:12,TEMP=15.3,BA=5.52,STAT.b=11.0
26/09/2020,12:47:41,TEMP=15.6,BA=5.52,STAT.D,ExtBa=14.10
26/09/2020,12:49:12,TEMP=15.9,BA=5.52,STAT.b=11.0
26/09/2020,13:02:34,TEMP=15.9,BA=5.52,STAT.b=11.0
26/09/2020,13:17:32,TEMP=15.8,BA=5.52,STAT.F,ExtBa=13.90
26/09/2020,13:19:04,TEMP=16.2,BA=5.52,STAT.b=11.0
26/09/2020,13:32:40,TEMP=16.3,BA=5.52,STAT.D,ExtBa=14.00
26/09/2020,13:34:12,TEMP=16.7,BA=5.52,STAT.b=11.0
26/09/2020,13:47:41,TEMP=16.2,BA=5.52,STAT.D,ExtBa=14.20
26/09/2020,13:49:12,TEMP=16.7,BA=5.52,STAT.b=11.0
26/09/2020,14:02:41,TEMP=15.9,BA=5.52,STAT.D,ExtBa=13.80
26/09/2020,14:04:13,TEMP=16.0,BA=5.52,STAT.b=11.0
26/09/2020,14:17:43,TEMP=15.0,BA=5.52,STAT.F,ExtBa=14.10
26/09/2020,14:19:14,TEMP=15.4,BA=5.52,STAT.b=11.0
26/09/2020,14:32:41,TEMP=14.9,BA=5.52,STAT.D,ExtBa=14.10
26/09/2020,14:34:14,TEMP=15.3,BA=5.52,STAT.b=11.0
26/09/2020,14:47:41,TEMP=15.7,BA=5.52,STAT.D,ExtBa=14.10
26/09/2020,14:49:14,TEMP=16.0,BA=5.52,STAT.b=11.0
26/09/2020,15:02:41,TEMP=15.7,BA=5.52,STAT.D,ExtBa=14.10
26/09/2020,15:04:13,TEMP=16.1,BA=5.52,STAT.b=11.0
26/09/2020,15:17:42,TEMP=15.6,BA=5.52,STAT.F,ExtBa=14.10
26/09/2020,15:19:15,TEMP=16.0,BA=5.52,STAT.b=11.0
26/09/2020,15:20:01,TEMP=16.0,BA=5.52,STAT.A,ExtBa=14.00
26/09/2020,15:21:33,TEMP=16.2,BA=5.52,STAT.b=11.0
26/09/2020,15:34:52,TEMP=15.6,BA=5.52,STAT.A,ExtBa=14.00
26/09/2020,15:36:24,TEMP=15.9,BA=5.52,STAT.b=11.0
26/09/2020,15:47:06,TEMP=15.2,BA=5.52,STAT.C,ExtBa=14.00
26/09/2020,15:48:38,TEMP=15.6,BA=5.52,STAT.b=11.0
26/09/2020,15:57:24,TEMP=15.3,BA=5.52,STAT.A,ExtBa=14.00
26/09/2020,15:58:56,TEMP=15.6,BA=5.52,STAT.b=11.0
26/09/2020,16:06:13,TEMP=15.2,BA=5.52,STAT.A,ExtBa=14.00
26/09/2020,16:07:45,TEMP=15.5,BA=5.52,STAT.b=11.0
26/09/2020,16:13:53,TEMP=15.2,BA=5.52,STAT.A,ExtBa=13.90
26/09/2020,16:15:25,TEMP=15.5,BA=5.52,STAT.b=11.0
26/09/2020,16:20:37,TEMP=15.4,BA=5.52,STAT.A,ExtBa=13.90
26/09/2020,16:22:09,TEMP=15.7,BA=5.52,STAT.b=11.0
26/09/2020,16:26:35,TEMP=15.4,BA=5.52,STAT.B,ExtBa=13.80
26/09/2020,16:28:07,TEMP=15.7,BA=5.52,STAT.b=11.0
26/09/2020,16:38:55,TEMP=14.4,BA=5.52,STAT.A,ExtBa=13.70
26/09/2020,16:40:27,TEMP=14.8,BA=5.52,STAT.b=11.0
26/09/2020,16:48:34,TEMP=14.5,BA=5.52,STAT.A,ExtBa=13.70
26/09/2020,16:50:06,TEMP=14.9,BA=5.52,STAT.b=11.0
26/09/2020,16:56:20,TEMP=14.7,BA=5.52,STAT.A,ExtBa=13.60
26/09/2020,16:57:52,TEMP=15.0,BA=5.52,STAT.b=11.0
26/09/2020,17:02:43,TEMP=14.6,BA=5.52,STAT.A,ExtBa=13.50
26/09/2020,17:04:16,TEMP=14.8,BA=5.52,STAT.b=11.0
26/09/2020,17:08:05,TEMP=14.5,BA=5.52,STAT.A,ExtBa=13.40
26/09/2020,17:09:38,TEMP=14.7,BA=5.52,STAT.b=11.0
26/09/2020,17:12:40,TEMP=14.4,BA=5.52,STAT.A,ExtBa=13.30
26/09/2020,17:14:12,TEMP=14.6,BA=5.52,STAT.b=11.0